sensor_id;sensor_type;location;lat;lon;timestamp;P1;durP1;ratioP1;P2;durP2;ratioP2
37483;SDS011;23337;52.212;9.926;2023-03-01T00:01:00;14.17;;;10.13;;
37483;SDS011;23337;52.212;9.926;2023-03-01T00:03:26;15.73;;;11.07;;
37483;SDS011;23337;52.212;9.926;2023-03-01T00:05:52;13.90;;;11.73;;
37483;SDS011;23337;52.212;9.926;2023-03-01T00:08:18;13.50;;;10.93;;
37483;SDS011;23337;52.212;9.926;2023-03-01T00:10:44;12.67;;;10.63;;
37483;SDS011;23337;52.212;9.926;2023-03-01T00:13:10;15.87;;;10.90;;
37483;SDS011;23337;52.212;9.926;2023-03-01T00:15:39;13.63;;;10.63;;
37483;SDS011;23337;52.212;9.926;2023-03-01T00:18:06;14.57;;;10.80;;
37483;SDS011;23337;52.212;9.926;2023-03-01T00:20:33;13.20;;;10.07;;
37483;SDS011;23337;52.212;9.926;2023-03-01T00:22:59;15.73;;;11.70;;
37483;SDS011;23337;52.212;9.926;2023-03-01T00:25:24;14.17;;;10.40;;
37483;SDS011;23337;52.212;9.926;2023-03-01T00:27:50;14.03;;;10.40;;
37483;SDS011;23337;52.212;9.926;2023-03-01T00:30:16;14.03;;;10.10;;
37483;SDS011;23337;52.212;9.926;2023-03-01T00:32:42;12.20;;;9.87;;
37483;SDS011;23337;52.212;9.926;2023-03-01T00:35:08;12.63;;;10.70;;
37483;SDS011;23337;52.212;9.926;2023-03-01T00:37:34;12.03;;;10.37;;
37483;SDS011;23337;52.212;9.926;2023-03-01T00:40:00;12.80;;;10.13;;
37483;SDS011;23337;52.212;9.926;2023-03-01T00:42:26;13.47;;;9.93;;
37483;SDS011;23337;52.212;9.926;2023-03-01T00:44:52;12.03;;;10.00;;
37483;SDS011;23337;52.212;9.926;2023-03-01T00:47:18;14.93;;;10.73;;
37483;SDS011;23337;52.212;9.926;2023-03-01T00:49:44;13.50;;;10.53;;
37483;SDS011;23337;52.212;9.926;2023-03-01T00:52:10;15.10;;;11.60;;
37483;SDS011;23337;52.212;9.926;2023-03-01T00:54:36;13.00;;;10.67;;
37483;SDS011;23337;52.212;9.926;2023-03-01T00:57:01;12.27;;;10.50;;
37483;SDS011;23337;52.212;9.926;2023-03-01T00:59:27;12.60;;;10.13;;
37483;SDS011;23337;52.212;9.926;2023-03-01T01:01:53;13.53;;;11.10;;
37483;SDS011;23337;52.212;9.926;2023-03-01T01:04:19;13.43;;;11.13;;
37483;SDS011;23337;52.212;9.926;2023-03-01T01:06:45;12.93;;;9.90;;
37483;SDS011;23337;52.212;9.926;2023-03-01T01:09:13;13.40;;;11.47;;
37483;SDS011;23337;52.212;9.926;2023-03-01T01:11:46;13.30;;;10.20;;
37483;SDS011;23337;52.212;9.926;2023-03-01T01:14:12;13.10;;;10.07;;
37483;SDS011;23337;52.212;9.926;2023-03-01T01:16:38;12.33;;;10.90;;
37483;SDS011;23337;52.212;9.926;2023-03-01T01:19:04;14.77;;;11.30;;
37483;SDS011;23337;52.212;9.926;2023-03-01T01:21:30;14.43;;;10.27;;
37483;SDS011;23337;52.212;9.926;2023-03-01T01:23:56;14.33;;;10.47;;
37483;SDS011;23337;52.212;9.926;2023-03-01T01:26:23;15.93;;;10.80;;
37483;SDS011;23337;52.212;9.926;2023-03-01T01:28:50;13.97;;;10.93;;
37483;SDS011;23337;52.212;9.926;2023-03-01T01:31:17;14.17;;;11.00;;
37483;SDS011;23337;52.212;9.926;2023-03-01T01:33:43;13.73;;;10.33;;
37483;SDS011;23337;52.212;9.926;2023-03-01T01:36:09;16.50;;;11.00;;
37483;SDS011;23337;52.212;9.926;2023-03-01T01:38:35;14.83;;;11.07;;
37483;SDS011;23337;52.212;9.926;2023-03-01T01:41:02;14.13;;;10.07;;
37483;SDS011;23337;52.212;9.926;2023-03-01T01:43:29;13.43;;;10.80;;
37483;SDS011;23337;52.212;9.926;2023-03-01T01:45:56;13.97;;;10.23;;
37483;SDS011;23337;52.212;9.926;2023-03-01T01:48:26;14.33;;;10.77;;
37483;SDS011;23337;52.212;9.926;2023-03-01T01:51:05;13.90;;;10.87;;
37483;SDS011;23337;52.212;9.926;2023-03-01T01:53:31;12.73;;;11.23;;
37483;SDS011;23337;52.212;9.926;2023-03-01T01:55:58;15.03;;;10.77;;
37483;SDS011;23337;52.212;9.926;2023-03-01T01:58:26;13.70;;;10.77;;
37483;SDS011;23337;52.212;9.926;2023-03-01T02:00:53;15.20;;;10.47;;
37483;SDS011;23337;52.212;9.926;2023-03-01T02:03:22;13.77;;;10.60;;
37483;SDS011;23337;52.212;9.926;2023-03-01T02:05:50;12.47;;;10.20;;
37483;SDS011;23337;52.212;9.926;2023-03-01T02:08:19;15.57;;;10.60;;
37483;SDS011;23337;52.212;9.926;2023-03-01T02:10:45;18.23;;;11.50;;
37483;SDS011;23337;52.212;9.926;2023-03-01T02:13:12;17.30;;;10.30;;
37483;SDS011;23337;52.212;9.926;2023-03-01T02:15:38;13.73;;;10.37;;
37483;SDS011;23337;52.212;9.926;2023-03-01T02:18:05;13.43;;;9.57;;
37483;SDS011;23337;52.212;9.926;2023-03-01T02:20:35;13.80;;;9.70;;
37483;SDS011;23337;52.212;9.926;2023-03-01T02:23:06;14.70;;;8.93;;
37483;SDS011;23337;52.212;9.926;2023-03-01T02:28:00;14.13;;;10.07;;
37483;SDS011;23337;52.212;9.926;2023-03-01T02:30:28;12.30;;;10.37;;
37483;SDS011;23337;52.212;9.926;2023-03-01T02:32:55;11.33;;;9.40;;
37483;SDS011;23337;52.212;9.926;2023-03-01T02:35:29;14.67;;;11.20;;
37483;SDS011;23337;52.212;9.926;2023-03-01T02:37:56;11.50;;;9.63;;
37483;SDS011;23337;52.212;9.926;2023-03-01T02:40:25;14.57;;;9.73;;
37483;SDS011;23337;52.212;9.926;2023-03-01T02:42:57;13.47;;;10.30;;
37483;SDS011;23337;52.212;9.926;2023-03-01T02:45:23;14.20;;;10.07;;
37483;SDS011;23337;52.212;9.926;2023-03-01T02:47:50;11.33;;;9.03;;
37483;SDS011;23337;52.212;9.926;2023-03-01T02:51:01;12.63;;;9.47;;
37483;SDS011;23337;52.212;9.926;2023-03-01T02:53:10;13.23;;;9.83;;
37483;SDS011;23337;52.212;9.926;2023-03-01T02:55:37;14.00;;;10.47;;
37483;SDS011;23337;52.212;9.926;2023-03-01T02:58:03;11.37;;;10.00;;
37483;SDS011;23337;52.212;9.926;2023-03-01T03:00:36;12.00;;;10.07;;
37483;SDS011;23337;52.212;9.926;2023-03-01T03:03:04;11.27;;;9.30;;
37483;SDS011;23337;52.212;9.926;2023-03-01T03:05:31;12.83;;;9.83;;
37483;SDS011;23337;52.212;9.926;2023-03-01T03:07:58;11.60;;;8.83;;
37483;SDS011;23337;52.212;9.926;2023-03-01T03:10:28;13.43;;;9.47;;
37483;SDS011;23337;52.212;9.926;2023-03-01T03:12:58;12.00;;;10.13;;
37483;SDS011;23337;52.212;9.926;2023-03-01T03:15:25;12.97;;;10.40;;
37483;SDS011;23337;52.212;9.926;2023-03-01T03:17:51;12.60;;;9.77;;
37483;SDS011;23337;52.212;9.926;2023-03-01T03:20:18;11.60;;;10.13;;
37483;SDS011;23337;52.212;9.926;2023-03-01T03:22:45;13.50;;;9.80;;
37483;SDS011;23337;52.212;9.926;2023-03-01T03:25:11;12.70;;;9.90;;
37483;SDS011;23337;52.212;9.926;2023-03-01T03:27:37;14.00;;;10.70;;
37483;SDS011;23337;52.212;9.926;2023-03-01T03:30:04;14.30;;;9.87;;
37483;SDS011;23337;52.212;9.926;2023-03-01T03:32:33;12.80;;;9.90;;
37483;SDS011;23337;52.212;9.926;2023-03-01T03:35:00;12.13;;;10.43;;
37483;SDS011;23337;52.212;9.926;2023-03-01T03:37:26;14.37;;;10.33;;
37483;SDS011;23337;52.212;9.926;2023-03-01T03:40:10;15.07;;;10.07;;
37483;SDS011;23337;52.212;9.926;2023-03-01T03:42:40;15.30;;;11.37;;
37483;SDS011;23337;52.212;9.926;2023-03-01T03:47:36;13.30;;;9.93;;
37483;SDS011;23337;52.212;9.926;2023-03-01T03:50:02;14.50;;;10.97;;
37483;SDS011;23337;52.212;9.926;2023-03-01T03:52:28;15.50;;;11.97;;
37483;SDS011;23337;52.212;9.926;2023-03-01T03:54:53;19.40;;;11.50;;
37483;SDS011;23337;52.212;9.926;2023-03-01T03:57:19;15.53;;;10.40;;
37483;SDS011;23337;52.212;9.926;2023-03-01T03:59:46;12.63;;;10.50;;
37483;SDS011;23337;52.212;9.926;2023-03-01T04:02:12;12.37;;;9.93;;
37483;SDS011;23337;52.212;9.926;2023-03-01T04:04:47;12.90;;;9.27;;
37483;SDS011;23337;52.212;9.926;2023-03-01T04:07:14;12.97;;;10.70;;
37483;SDS011;23337;52.212;9.926;2023-03-01T04:09:40;11.73;;;9.50;;
37483;SDS011;23337;52.212;9.926;2023-03-01T04:12:07;12.00;;;9.23;;
37483;SDS011;23337;52.212;9.926;2023-03-01T04:14:33;11.60;;;9.00;;
37483;SDS011;23337;52.212;9.926;2023-03-01T04:16:59;12.87;;;8.63;;
37483;SDS011;23337;52.212;9.926;2023-03-01T04:19:26;10.90;;;8.33;;
37483;SDS011;23337;52.212;9.926;2023-03-01T04:21:52;12.00;;;8.77;;
37483;SDS011;23337;52.212;9.926;2023-03-01T04:24:18;10.63;;;9.23;;
37483;SDS011;23337;52.212;9.926;2023-03-01T04:26:44;12.50;;;8.70;;
37483;SDS011;23337;52.212;9.926;2023-03-01T04:29:10;13.93;;;8.53;;
37483;SDS011;23337;52.212;9.926;2023-03-01T04:31:36;9.67;;;7.67;;
37483;SDS011;23337;52.212;9.926;2023-03-01T04:34:02;10.10;;;7.87;;
37483;SDS011;23337;52.212;9.926;2023-03-01T04:36:28;9.83;;;7.80;;
37483;SDS011;23337;52.212;9.926;2023-03-01T04:38:55;12.20;;;8.60;;
37483;SDS011;23337;52.212;9.926;2023-03-01T04:41:22;10.63;;;7.27;;
37483;SDS011;23337;52.212;9.926;2023-03-01T04:43:49;13.37;;;8.30;;
37483;SDS011;23337;52.212;9.926;2023-03-01T04:46:16;8.47;;;7.53;;
37483;SDS011;23337;52.212;9.926;2023-03-01T04:48:43;9.20;;;7.73;;
37483;SDS011;23337;52.212;9.926;2023-03-01T04:51:09;9.87;;;7.97;;
37483;SDS011;23337;52.212;9.926;2023-03-01T04:53:38;11.77;;;7.23;;
37483;SDS011;23337;52.212;9.926;2023-03-01T04:56:04;9.37;;;6.43;;
37483;SDS011;23337;52.212;9.926;2023-03-01T04:58:31;9.17;;;7.53;;
37483;SDS011;23337;52.212;9.926;2023-03-01T05:00:57;12.07;;;7.60;;
37483;SDS011;23337;52.212;9.926;2023-03-01T05:03:23;10.67;;;7.20;;
37483;SDS011;23337;52.212;9.926;2023-03-01T05:05:50;11.00;;;6.83;;
37483;SDS011;23337;52.212;9.926;2023-03-01T05:08:16;11.00;;;7.77;;
37483;SDS011;23337;52.212;9.926;2023-03-01T05:10:52;8.93;;;6.37;;
37483;SDS011;23337;52.212;9.926;2023-03-01T05:13:19;13.83;;;8.33;;
37483;SDS011;23337;52.212;9.926;2023-03-01T05:15:49;9.50;;;7.40;;
37483;SDS011;23337;52.212;9.926;2023-03-01T05:18:19;8.40;;;6.43;;
37483;SDS011;23337;52.212;9.926;2023-03-01T05:20:45;10.43;;;7.73;;
37483;SDS011;23337;52.212;9.926;2023-03-01T05:23:11;7.07;;;6.03;;
37483;SDS011;23337;52.212;9.926;2023-03-01T05:25:37;10.27;;;7.40;;
37483;SDS011;23337;52.212;9.926;2023-03-01T05:28:05;9.97;;;7.10;;
37483;SDS011;23337;52.212;9.926;2023-03-01T05:30:32;9.37;;;6.77;;
37483;SDS011;23337;52.212;9.926;2023-03-01T05:32:58;8.53;;;6.80;;
37483;SDS011;23337;52.212;9.926;2023-03-01T05:35:24;8.73;;;7.00;;
37483;SDS011;23337;52.212;9.926;2023-03-01T05:37:51;10.13;;;7.30;;
37483;SDS011;23337;52.212;9.926;2023-03-01T05:40:18;13.47;;;7.83;;
37483;SDS011;23337;52.212;9.926;2023-03-01T05:42:45;10.67;;;7.30;;
37483;SDS011;23337;52.212;9.926;2023-03-01T05:45:11;9.90;;;7.27;;
37483;SDS011;23337;52.212;9.926;2023-03-01T05:47:41;9.97;;;7.00;;
37483;SDS011;23337;52.212;9.926;2023-03-01T05:50:10;11.27;;;7.20;;
37483;SDS011;23337;52.212;9.926;2023-03-01T05:52:36;10.30;;;7.20;;
37483;SDS011;23337;52.212;9.926;2023-03-01T05:55:01;8.47;;;6.80;;
37483;SDS011;23337;52.212;9.926;2023-03-01T05:57:28;8.37;;;6.70;;
37483;SDS011;23337;52.212;9.926;2023-03-01T05:59:54;9.07;;;6.70;;
37483;SDS011;23337;52.212;9.926;2023-03-01T06:02:20;10.30;;;6.50;;
37483;SDS011;23337;52.212;9.926;2023-03-01T06:04:46;7.97;;;6.27;;
37483;SDS011;23337;52.212;9.926;2023-03-01T06:07:12;10.17;;;6.80;;
37483;SDS011;23337;52.212;9.926;2023-03-01T06:09:38;12.33;;;7.00;;
37483;SDS011;23337;52.212;9.926;2023-03-01T06:12:04;9.47;;;6.87;;
37483;SDS011;23337;52.212;9.926;2023-03-01T06:14:30;7.87;;;6.97;;
37483;SDS011;23337;52.212;9.926;2023-03-01T06:16:56;9.70;;;7.33;;
37483;SDS011;23337;52.212;9.926;2023-03-01T06:19:23;11.10;;;7.00;;
37483;SDS011;23337;52.212;9.926;2023-03-01T06:21:49;8.07;;;5.67;;
37483;SDS011;23337;52.212;9.926;2023-03-01T06:24:15;10.20;;;7.00;;
37483;SDS011;23337;52.212;9.926;2023-03-01T06:26:40;13.17;;;6.73;;
37483;SDS011;23337;52.212;9.926;2023-03-01T06:29:06;10.00;;;6.90;;
37483;SDS011;23337;52.212;9.926;2023-03-01T06:31:33;7.10;;;6.40;;
37483;SDS011;23337;52.212;9.926;2023-03-01T06:33:59;10.30;;;7.57;;
37483;SDS011;23337;52.212;9.926;2023-03-01T06:36:25;10.23;;;6.60;;
37483;SDS011;23337;52.212;9.926;2023-03-01T06:38:51;10.33;;;7.00;;
37483;SDS011;23337;52.212;9.926;2023-03-01T06:41:17;9.60;;;7.00;;
37483;SDS011;23337;52.212;9.926;2023-03-01T06:43:43;8.30;;;6.07;;
37483;SDS011;23337;52.212;9.926;2023-03-01T06:46:09;13.00;;;6.83;;
37483;SDS011;23337;52.212;9.926;2023-03-01T06:48:35;11.47;;;6.70;;
37483;SDS011;23337;52.212;9.926;2023-03-01T06:51:01;13.10;;;6.73;;
37483;SDS011;23337;52.212;9.926;2023-03-01T06:53:27;10.57;;;6.43;;
37483;SDS011;23337;52.212;9.926;2023-03-01T06:55:54;11.67;;;7.20;;
37483;SDS011;23337;52.212;9.926;2023-03-01T06:58:20;10.83;;;6.97;;
37483;SDS011;23337;52.212;9.926;2023-03-01T07:00:46;10.13;;;7.10;;
37483;SDS011;23337;52.212;9.926;2023-03-01T07:03:12;10.13;;;7.30;;
37483;SDS011;23337;52.212;9.926;2023-03-01T07:05:38;11.10;;;7.90;;
37483;SDS011;23337;52.212;9.926;2023-03-01T07:08:04;13.13;;;8.43;;
37483;SDS011;23337;52.212;9.926;2023-03-01T07:10:30;11.47;;;7.93;;
37483;SDS011;23337;52.212;9.926;2023-03-01T07:12:57;9.60;;;7.90;;
37483;SDS011;23337;52.212;9.926;2023-03-01T07:15:23;11.20;;;9.03;;
37483;SDS011;23337;52.212;9.926;2023-03-01T07:17:49;10.90;;;8.17;;
37483;SDS011;23337;52.212;9.926;2023-03-01T07:20:16;13.10;;;9.97;;
37483;SDS011;23337;52.212;9.926;2023-03-01T07:22:42;9.77;;;8.43;;
37483;SDS011;23337;52.212;9.926;2023-03-01T07:25:09;12.00;;;8.90;;
37483;SDS011;23337;52.212;9.926;2023-03-01T07:27:35;13.43;;;9.23;;
37483;SDS011;23337;52.212;9.926;2023-03-01T07:30:02;11.73;;;8.90;;
37483;SDS011;23337;52.212;9.926;2023-03-01T07:32:28;14.00;;;10.23;;
37483;SDS011;23337;52.212;9.926;2023-03-01T07:34:54;13.67;;;9.30;;
37483;SDS011;23337;52.212;9.926;2023-03-01T07:37:20;13.67;;;10.07;;
37483;SDS011;23337;52.212;9.926;2023-03-01T07:39:46;14.17;;;9.67;;
37483;SDS011;23337;52.212;9.926;2023-03-01T07:42:12;13.20;;;9.30;;
37483;SDS011;23337;52.212;9.926;2023-03-01T07:44:38;10.57;;;8.40;;
37483;SDS011;23337;52.212;9.926;2023-03-01T07:47:03;11.13;;;8.83;;
37483;SDS011;23337;52.212;9.926;2023-03-01T07:49:29;12.50;;;9.20;;
37483;SDS011;23337;52.212;9.926;2023-03-01T07:51:55;10.23;;;9.03;;
37483;SDS011;23337;52.212;9.926;2023-03-01T07:54:21;13.67;;;9.70;;
37483;SDS011;23337;52.212;9.926;2023-03-01T07:56:47;10.90;;;9.63;;
37483;SDS011;23337;52.212;9.926;2023-03-01T07:59:13;14.40;;;10.40;;
37483;SDS011;23337;52.212;9.926;2023-03-01T08:01:39;16.67;;;10.83;;
37483;SDS011;23337;52.212;9.926;2023-03-01T08:04:06;12.00;;;9.67;;
37483;SDS011;23337;52.212;9.926;2023-03-01T08:06:33;18.67;;;12.13;;
37483;SDS011;23337;52.212;9.926;2023-03-01T08:08:59;15.10;;;10.73;;
37483;SDS011;23337;52.212;9.926;2023-03-01T08:11:25;12.67;;;10.30;;
37483;SDS011;23337;52.212;9.926;2023-03-01T08:13:53;14.40;;;10.03;;
37483;SDS011;23337;52.212;9.926;2023-03-01T08:16:19;12.37;;;10.13;;
37483;SDS011;23337;52.212;9.926;2023-03-01T08:18:45;12.50;;;9.73;;
37483;SDS011;23337;52.212;9.926;2023-03-01T08:21:12;13.23;;;10.30;;
37483;SDS011;23337;52.212;9.926;2023-03-01T08:23:38;13.03;;;10.17;;
37483;SDS011;23337;52.212;9.926;2023-03-01T08:26:08;12.77;;;9.80;;
37483;SDS011;23337;52.212;9.926;2023-03-01T08:28:35;13.73;;;9.93;;
37483;SDS011;23337;52.212;9.926;2023-03-01T08:31:01;11.80;;;10.50;;
37483;SDS011;23337;52.212;9.926;2023-03-01T08:33:27;12.83;;;9.80;;
37483;SDS011;23337;52.212;9.926;2023-03-01T08:36:01;12.83;;;10.37;;
37483;SDS011;23337;52.212;9.926;2023-03-01T08:38:27;15.23;;;10.40;;
37483;SDS011;23337;52.212;9.926;2023-03-01T08:40:53;12.67;;;9.57;;
37483;SDS011;23337;52.212;9.926;2023-03-01T08:43:19;15.60;;;11.00;;
37483;SDS011;23337;52.212;9.926;2023-03-01T08:45:47;13.47;;;12.00;;
37483;SDS011;23337;52.212;9.926;2023-03-01T08:48:13;13.40;;;10.50;;
37483;SDS011;23337;52.212;9.926;2023-03-01T08:50:39;14.60;;;10.27;;
37483;SDS011;23337;52.212;9.926;2023-03-01T08:53:06;11.83;;;9.43;;
37483;SDS011;23337;52.212;9.926;2023-03-01T08:55:32;13.43;;;10.90;;
37483;SDS011;23337;52.212;9.926;2023-03-01T08:57:58;14.47;;;10.03;;
37483;SDS011;23337;52.212;9.926;2023-03-01T09:00:24;12.27;;;8.97;;
37483;SDS011;23337;52.212;9.926;2023-03-01T09:02:50;11.37;;;10.03;;
37483;SDS011;23337;52.212;9.926;2023-03-01T09:05:16;11.57;;;9.23;;
37483;SDS011;23337;52.212;9.926;2023-03-01T09:07:42;11.47;;;9.27;;
37483;SDS011;23337;52.212;9.926;2023-03-01T09:10:08;13.00;;;9.67;;
37483;SDS011;23337;52.212;9.926;2023-03-01T09:12:34;13.13;;;8.47;;
37483;SDS011;23337;52.212;9.926;2023-03-01T09:15:00;10.10;;;8.50;;
37483;SDS011;23337;52.212;9.926;2023-03-01T09:17:26;14.03;;;9.03;;
37483;SDS011;23337;52.212;9.926;2023-03-01T09:19:52;11.10;;;9.90;;
37483;SDS011;23337;52.212;9.926;2023-03-01T09:22:19;10.77;;;8.30;;
37483;SDS011;23337;52.212;9.926;2023-03-01T09:24:45;11.07;;;8.63;;
37483;SDS011;23337;52.212;9.926;2023-03-01T09:27:11;10.77;;;8.93;;
37483;SDS011;23337;52.212;9.926;2023-03-01T09:29:39;10.57;;;8.60;;
37483;SDS011;23337;52.212;9.926;2023-03-01T09:32:05;9.67;;;7.93;;
37483;SDS011;23337;52.212;9.926;2023-03-01T09:34:33;17.77;;;8.70;;
37483;SDS011;23337;52.212;9.926;2023-03-01T09:37:18;11.27;;;8.83;;
37483;SDS011;23337;52.212;9.926;2023-03-01T09:39:44;12.17;;;8.17;;
37483;SDS011;23337;52.212;9.926;2023-03-01T09:42:11;10.70;;;9.00;;
37483;SDS011;23337;52.212;9.926;2023-03-01T09:44:42;11.90;;;8.23;;
37483;SDS011;23337;52.212;9.926;2023-03-01T09:47:11;9.33;;;7.77;;
37483;SDS011;23337;52.212;9.926;2023-03-01T09:49:39;10.13;;;8.03;;
37483;SDS011;23337;52.212;9.926;2023-03-01T09:52:12;13.37;;;8.30;;
37483;SDS011;23337;52.212;9.926;2023-03-01T09:54:46;11.00;;;8.40;;
37483;SDS011;23337;52.212;9.926;2023-03-01T09:57:18;11.37;;;8.13;;
37483;SDS011;23337;52.212;9.926;2023-03-01T10:02:39;10.63;;;7.87;;
37483;SDS011;23337;52.212;9.926;2023-03-01T10:05:09;11.33;;;7.43;;
37483;SDS011;23337;52.212;9.926;2023-03-01T10:07:42;11.88;;;8.60;;
37483;SDS011;23337;52.212;9.926;2023-03-01T10:10:14;10.07;;;8.30;;
37483;SDS011;23337;52.212;9.926;2023-03-01T10:12:41;9.90;;;8.07;;
37483;SDS011;23337;52.212;9.926;2023-03-01T10:15:18;10.43;;;8.23;;
37483;SDS011;23337;52.212;9.926;2023-03-01T10:17:52;8.10;;;7.30;;
37483;SDS011;23337;52.212;9.926;2023-03-01T10:22:47;8.43;;;7.10;;
37483;SDS011;23337;52.212;9.926;2023-03-01T10:25:20;10.37;;;7.40;;
37483;SDS011;23337;52.212;9.926;2023-03-01T10:27:53;8.77;;;7.00;;
37483;SDS011;23337;52.212;9.926;2023-03-01T10:30:26;10.13;;;6.70;;
37483;SDS011;23337;52.212;9.926;2023-03-01T10:32:55;11.90;;;9.43;;
37483;SDS011;23337;52.212;9.926;2023-03-01T10:35:24;8.40;;;7.13;;
37483;SDS011;23337;52.212;9.926;2023-03-01T10:38:03;9.13;;;7.23;;
37483;SDS011;23337;52.212;9.926;2023-03-01T10:40:30;8.57;;;7.00;;
37483;SDS011;23337;52.212;9.926;2023-03-01T10:42:57;9.60;;;7.57;;
37483;SDS011;23337;52.212;9.926;2023-03-01T10:45:57;8.30;;;6.83;;
37483;SDS011;23337;52.212;9.926;2023-03-01T10:48:20;7.30;;;5.87;;
37483;SDS011;23337;52.212;9.926;2023-03-01T10:50:49;8.33;;;6.20;;
37483;SDS011;23337;52.212;9.926;2023-03-01T10:53:19;6.83;;;6.13;;
37483;SDS011;23337;52.212;9.926;2023-03-01T10:55:46;10.17;;;6.57;;
37483;SDS011;23337;52.212;9.926;2023-03-01T10:58:19;8.43;;;6.00;;
37483;SDS011;23337;52.212;9.926;2023-03-01T11:03:13;7.90;;;6.27;;
37483;SDS011;23337;52.212;9.926;2023-03-01T11:08:35;7.57;;;6.10;;
37483;SDS011;23337;52.212;9.926;2023-03-01T11:11:06;6.20;;;5.00;;
37483;SDS011;23337;52.212;9.926;2023-03-01T11:13:32;6.27;;;5.30;;
37483;SDS011;23337;52.212;9.926;2023-03-01T11:16:00;6.47;;;5.10;;
37483;SDS011;23337;52.212;9.926;2023-03-01T11:18:26;7.23;;;5.17;;
37483;SDS011;23337;52.212;9.926;2023-03-01T11:20:53;6.43;;;5.00;;
37483;SDS011;23337;52.212;9.926;2023-03-01T11:23:20;9.20;;;5.77;;
37483;SDS011;23337;52.212;9.926;2023-03-01T11:25:49;8.90;;;5.67;;
37483;SDS011;23337;52.212;9.926;2023-03-01T11:28:18;7.40;;;5.10;;
37483;SDS011;23337;52.212;9.926;2023-03-01T11:30:55;6.67;;;5.33;;
37483;SDS011;23337;52.212;9.926;2023-03-01T11:36:00;7.43;;;5.23;;
37483;SDS011;23337;52.212;9.926;2023-03-01T11:38:27;6.70;;;4.37;;
37483;SDS011;23337;52.212;9.926;2023-03-01T11:41:00;6.40;;;5.00;;
37483;SDS011;23337;52.212;9.926;2023-03-01T11:59:13;6.93;;;5.40;;
37483;SDS011;23337;52.212;9.926;2023-03-01T12:01:54;8.33;;;5.17;;
37483;SDS011;23337;52.212;9.926;2023-03-01T12:04:31;5.77;;;4.87;;
37483;SDS011;23337;52.212;9.926;2023-03-01T12:07:08;5.60;;;5.10;;
37483;SDS011;23337;52.212;9.926;2023-03-01T12:17:57;6.00;;;5.27;;
37483;SDS011;23337;52.212;9.926;2023-03-01T12:20:31;8.00;;;5.37;;
37483;SDS011;23337;52.212;9.926;2023-03-01T12:30:45;5.30;;;4.80;;
37483;SDS011;23337;52.212;9.926;2023-03-01T12:33:20;8.17;;;5.53;;
37483;SDS011;23337;52.212;9.926;2023-03-01T12:36:03;6.43;;;5.20;;
37483;SDS011;23337;52.212;9.926;2023-03-01T12:41:19;5.53;;;4.23;;
37483;SDS011;23337;52.212;9.926;2023-03-01T12:51:14;6.17;;;4.20;;
37483;SDS011;23337;52.212;9.926;2023-03-01T12:56:08;6.33;;;4.40;;
37483;SDS011;23337;52.212;9.926;2023-03-01T13:06:29;5.93;;;4.50;;
37483;SDS011;23337;52.212;9.926;2023-03-01T13:11:34;6.87;;;4.70;;
37483;SDS011;23337;52.212;9.926;2023-03-01T13:14:34;6.40;;;4.43;;
37483;SDS011;23337;52.212;9.926;2023-03-01T13:16:52;4.77;;;4.27;;
37483;SDS011;23337;52.212;9.926;2023-03-01T13:19:23;6.30;;;4.40;;
37483;SDS011;23337;52.212;9.926;2023-03-01T13:21:50;4.73;;;3.57;;
37483;SDS011;23337;52.212;9.926;2023-03-01T13:24:39;5.87;;;4.17;;
37483;SDS011;23337;52.212;9.926;2023-03-01T13:29:43;4.57;;;4.00;;
37483;SDS011;23337;52.212;9.926;2023-03-01T13:32:22;4.43;;;3.63;;
37483;SDS011;23337;52.212;9.926;2023-03-01T13:34:50;4.83;;;4.33;;
37483;SDS011;23337;52.212;9.926;2023-03-01T13:37:21;4.90;;;4.27;;
37483;SDS011;23337;52.212;9.926;2023-03-01T13:39:47;6.57;;;4.47;;
37483;SDS011;23337;52.212;9.926;2023-03-01T13:44:58;4.60;;;3.97;;
37483;SDS011;23337;52.212;9.926;2023-03-01T13:47:24;4.93;;;3.47;;
37483;SDS011;23337;52.212;9.926;2023-03-01T13:49:51;4.73;;;3.87;;
37483;SDS011;23337;52.212;9.926;2023-03-01T13:52:38;7.73;;;3.80;;
37483;SDS011;23337;52.212;9.926;2023-03-01T13:57:41;5.20;;;4.27;;
37483;SDS011;23337;52.212;9.926;2023-03-01T14:00:23;4.77;;;3.77;;
37483;SDS011;23337;52.212;9.926;2023-03-01T14:02:59;7.37;;;4.10;;
37483;SDS011;23337;52.212;9.926;2023-03-01T14:05:25;7.70;;;4.60;;
37483;SDS011;23337;52.212;9.926;2023-03-01T14:07:51;4.80;;;3.30;;
37483;SDS011;23337;52.212;9.926;2023-03-01T14:10:17;8.23;;;4.00;;
37483;SDS011;23337;52.212;9.926;2023-03-01T14:12:55;4.57;;;3.53;;
37483;SDS011;23337;52.212;9.926;2023-03-01T14:15:42;4.50;;;3.70;;
37483;SDS011;23337;52.212;9.926;2023-03-01T14:18:23;14.10;;;5.67;;
37483;SDS011;23337;52.212;9.926;2023-03-01T14:20:50;6.93;;;4.03;;
37483;SDS011;23337;52.212;9.926;2023-03-01T14:23:18;5.20;;;3.83;;
37483;SDS011;23337;52.212;9.926;2023-03-01T14:25:50;4.93;;;3.60;;
37483;SDS011;23337;52.212;9.926;2023-03-01T14:28:29;4.67;;;3.43;;
37483;SDS011;23337;52.212;9.926;2023-03-01T14:30:58;5.87;;;3.47;;
37483;SDS011;23337;52.212;9.926;2023-03-01T14:38:27;5.40;;;3.77;;
37483;SDS011;23337;52.212;9.926;2023-03-01T14:40:54;5.80;;;2.77;;
37483;SDS011;23337;52.212;9.926;2023-03-01T14:43:22;5.33;;;3.60;;
37483;SDS011;23337;52.212;9.926;2023-03-01T14:45:50;4.30;;;3.13;;
37483;SDS011;23337;52.212;9.926;2023-03-01T14:48:16;4.87;;;3.73;;
37483;SDS011;23337;52.212;9.926;2023-03-01T14:50:43;4.37;;;3.40;;
37483;SDS011;23337;52.212;9.926;2023-03-01T14:53:15;4.80;;;3.17;;
37483;SDS011;23337;52.212;9.926;2023-03-01T14:55:43;5.73;;;3.33;;
37483;SDS011;23337;52.212;9.926;2023-03-01T14:58:14;3.07;;;2.60;;
37483;SDS011;23337;52.212;9.926;2023-03-01T15:00:44;6.93;;;3.03;;
37483;SDS011;23337;52.212;9.926;2023-03-01T15:03:22;4.53;;;3.03;;
37483;SDS011;23337;52.212;9.926;2023-03-01T15:05:49;4.27;;;3.20;;
37483;SDS011;23337;52.212;9.926;2023-03-01T15:08:20;3.07;;;2.43;;
37483;SDS011;23337;52.212;9.926;2023-03-01T15:10:57;4.17;;;3.37;;
37483;SDS011;23337;52.212;9.926;2023-03-01T15:13:24;4.17;;;3.20;;
37483;SDS011;23337;52.212;9.926;2023-03-01T15:15:51;5.07;;;3.30;;
37483;SDS011;23337;52.212;9.926;2023-03-01T15:18:19;4.47;;;3.50;;
37483;SDS011;23337;52.212;9.926;2023-03-01T15:20:46;4.13;;;3.03;;
37483;SDS011;23337;52.212;9.926;2023-03-01T15:23:20;4.20;;;2.73;;
37483;SDS011;23337;52.212;9.926;2023-03-01T15:25:48;4.83;;;3.63;;
37483;SDS011;23337;52.212;9.926;2023-03-01T15:28:21;3.07;;;2.77;;
37483;SDS011;23337;52.212;9.926;2023-03-01T15:30:51;4.00;;;3.20;;
37483;SDS011;23337;52.212;9.926;2023-03-01T15:33:20;4.40;;;3.60;;
37483;SDS011;23337;52.212;9.926;2023-03-01T15:35:53;6.53;;;3.57;;
37483;SDS011;23337;52.212;9.926;2023-03-01T15:38:24;4.83;;;3.77;;
37483;SDS011;23337;52.212;9.926;2023-03-01T15:40:50;5.27;;;3.50;;
37483;SDS011;23337;52.212;9.926;2023-03-01T15:46:01;4.60;;;3.33;;
37483;SDS011;23337;52.212;9.926;2023-03-01T15:48:27;4.33;;;3.10;;
37483;SDS011;23337;52.212;9.926;2023-03-01T15:50:54;4.33;;;3.60;;
37483;SDS011;23337;52.212;9.926;2023-03-01T15:53:20;5.60;;;3.27;;
37483;SDS011;23337;52.212;9.926;2023-03-01T15:55:46;5.40;;;3.47;;
37483;SDS011;23337;52.212;9.926;2023-03-01T16:00:40;3.20;;;2.80;;
37483;SDS011;23337;52.212;9.926;2023-03-01T16:03:07;3.53;;;3.23;;
37483;SDS011;23337;52.212;9.926;2023-03-01T16:05:35;6.07;;;3.93;;
37483;SDS011;23337;52.212;9.926;2023-03-01T16:08:01;4.93;;;4.43;;
37483;SDS011;23337;52.212;9.926;2023-03-01T16:10:27;6.50;;;4.73;;
37483;SDS011;23337;52.212;9.926;2023-03-01T16:12:54;5.27;;;4.67;;